Time;durP1;ratioP1;P1;durP2;ratioP2;P2;SDS_P1;SDS_P2;PMS_P1;PMS_P2;Temp;Humidity;BMP_temperature;BMP_pressure;BME280_temperature;BME280_humidity;BME280_pressure;Samples;Min_cycle;Max_cycle;Signal;HPM_P1;HPM_P2
2022/07/09 00:01:06;;;;;;;4.77;3.33;;;;;;;13.97;89.42;99284.59;5053348;28;20215;-68
2022/07/09 00:03:34;;;;;;;4.40;3.40;;;;;;;13.98;90.17;99273.00;5052946;28;20242;-69
2022/07/09 00:06:02;;;;;;;4.33;3.60;;;;;;;13.97;90.18;99281.94;5053198;28;20223;-68
2022/07/09 00:08:29;;;;;;;4.93;3.40;;;;;;;14.01;89.59;99280.81;5052785;28;20731;-68
2022/07/09 00:10:55;;;;;;;4.73;3.33;;;;;;;14.00;89.23;99282.59;5052814;28;20223;-68
2022/07/09 00:13:22;;;;;;;5.60;3.07;;;;;;;14.02;88.60;99278.06;5052745;28;20220;-68
2022/07/09 00:15:49;;;;;;;5.53;3.23;;;;;;;14.08;87.26;99279.44;5052876;28;20216;-67
2022/07/09 00:18:16;;;;;;;13.20;3.57;;;;;;;14.09;86.25;99281.16;5053079;28;20212;-68
2022/07/09 00:20:44;;;;;;;5.07;3.30;;;;;;;14.16;85.10;99271.81;5052922;28;20239;-68
2022/07/09 00:23:10;;;;;;;6.20;3.50;;;;;;;14.19;84.06;99269.84;5050982;28;20303;-68
2022/07/09 00:25:37;;;;;;;4.63;3.00;;;;;;;14.23;83.60;99267.84;5052740;28;20247;-68
2022/07/09 00:28:04;;;;;;;4.73;3.10;;;;;;;14.25;83.38;99269.44;5052967;28;20224;-68
2022/07/09 00:30:30;;;;;;;4.60;3.10;;;;;;;14.30;82.97;99269.16;5052728;28;21327;-68
2022/07/09 00:32:57;;;;;;;6.90;3.07;;;;;;;14.25;84.04;99260.63;5052836;28;20307;-68
2022/07/09 00:35:24;;;;;;;3.73;3.10;;;;;;;14.16;84.63;99263.84;5052536;28;20657;-68
2022/07/09 00:37:52;;;;;;;4.63;3.60;;;;;;;14.03;85.91;99271.78;5044616;28;20223;-68
2022/07/09 00:40:18;;;;;;;3.20;2.90;;;;;;;14.03;86.14;99270.91;5052750;28;20207;-68
2022/07/09 00:42:45;;;;;;;4.27;3.27;;;;;;;13.96;86.87;99261.63;5050086;28;20256;-68
2022/07/09 00:45:12;;;;;;;5.23;3.33;;;;;;;13.90;87.81;99259.38;5052613;28;20247;-68
2022/07/09 00:47:38;;;;;;;5.07;3.23;;;;;;;13.89;88.32;99257.66;5052678;28;20219;-68
2022/07/09 00:50:06;;;;;;;5.27;3.17;;;;;;;13.84;88.78;99254.44;5051090;28;20248;-68
2022/07/09 00:52:35;;;;;;;3.97;3.13;;;;;;;13.80;89.22;99252.94;5052320;28;20212;-69
2022/07/09 00:55:06;;;;;;;3.77;3.00;;;;;;;13.81;89.24;99249.34;5052383;28;20220;-68
2022/07/09 00:57:34;;;;;;;4.20;3.53;;;;;;;13.80;88.61;99244.97;5044937;28;20220;-68
2022/07/09 01:00:01;;;;;;;5.47;3.23;;;;;;;13.82;88.09;99246.56;5052383;28;20212;-68
2022/07/09 01:02:28;;;;;;;3.43;3.10;;;;;;;13.81;88.46;99241.38;5052661;28;20304;-68
2022/07/09 01:04:55;;;;;;;3.77;3.10;;;;;;;13.77;88.53;99242.50;5052546;28;20326;-68
2022/07/09 01:07:21;;;;;;;3.80;3.37;;;;;;;13.74;88.66;99237.41;5052354;28;20251;-68
2022/07/09 01:09:48;;;;;;;4.83;3.70;;;;;;;13.72;89.44;99239.28;5052494;28;20208;-68
2022/07/09 01:12:16;;;;;;;5.67;3.67;;;;;;;13.67;89.84;99236.06;5052722;28;20293;-68
2022/07/09 01:14:42;;;;;;;5.13;3.90;;;;;;;13.64;90.07;99233.63;5050853;28;20220;-68
2022/07/09 01:17:09;;;;;;;4.97;3.70;;;;;;;13.58;90.98;99242.00;5052569;28;20212;-68
2022/07/09 01:19:35;;;;;;;4.77;3.67;;;;;;;13.49;91.97;99232.81;5052169;28;20220;-68
2022/07/09 01:22:04;;;;;;;5.70;3.87;;;;;;;13.43;92.54;99227.88;5051947;28;20792;-68
2022/07/09 01:24:31;;;;;;;6.17;3.63;;;;;;;13.42;92.55;99235.94;5052271;28;20239;-68
2022/07/09 01:26:57;;;;;;;4.47;3.63;;;;;;;13.39;92.70;99229.00;5052045;28;20208;-68
2022/07/09 01:29:24;;;;;;;4.33;3.73;;;;;;;13.23;94.33;99230.09;5054937;28;20677;-68
2022/07/09 01:31:50;;;;;;;5.17;3.97;;;;;;;13.21;94.87;99226.69;5055550;28;20223;-68
2022/07/09 01:34:17;;;;;;;6.80;4.17;;;;;;;13.12;95.42;99227.22;5055907;28;20230;-68
2022/07/09 01:36:44;;;;;;;5.23;3.97;;;;;;;13.05;95.93;99228.56;5055862;28;20230;-68
2022/07/09 01:39:11;;;;;;;5.07;4.00;;;;;;;12.97;96.55;99222.88;5055919;28;20220;-68
2022/07/09 01:41:38;;;;;;;4.77;3.67;;;;;;;12.93;96.34;99221.31;5053880;28;20221;-68
2022/07/09 01:44:06;;;;;;;5.07;3.97;;;;;;;12.85;96.84;99226.25;5055719;28;20609;-68
2022/07/09 01:46:33;;;;;;;5.50;4.33;;;;;;;12.79;97.99;99223.97;5055434;28;20269;-68
2022/07/09 01:48:59;;;;;;;5.23;4.20;;;;;;;12.78;98.17;99217.81;5055476;28;20307;-68
2022/07/09 01:51:26;;;;;;;5.77;4.10;;;;;;;12.73;99.23;99213.75;5055698;28;20576;-68
2022/07/09 01:53:53;;;;;;;7.80;4.10;;;;;;;12.75;99.68;99217.13;5050374;28;20307;-68
2022/07/09 01:56:20;;;;;;;7.33;4.30;;;;;;;12.71;100.00;99215.66;5055227;28;20669;-68
2022/07/09 01:58:47;;;;;;;7.90;4.10;;;;;;;12.65;100.00;99214.19;5055462;28;20216;-68
2022/07/09 02:01:13;;;;;;;6.60;4.17;;;;;;;12.61;100.00;99203.88;5055366;28;20577;-68
2022/07/09 02:03:40;;;;;;;4.53;3.73;;;;;;;12.63;100.00;99201.97;5055143;28;20207;-69
2022/07/09 02:06:07;;;;;;;5.27;4.03;;;;;;;12.58;100.00;99199.59;5055174;28;20317;-68
2022/07/09 02:08:33;;;;;;;4.30;3.60;;;;;;;12.60;100.00;99204.81;5054047;28;20246;-68
2022/07/09 02:11:00;;;;;;;5.43;3.80;;;;;;;12.61;100.00;99201.22;5055188;28;20292;-68
2022/07/09 02:13:28;;;;;;;6.37;4.07;;;;;;;12.60;100.00;99196.88;5055119;28;20220;-68
2022/07/09 02:15:54;;;;;;;5.90;4.03;;;;;;;12.51;100.00;99198.28;5055085;28;20216;-68
2022/07/09 02:18:21;;;;;;;6.60;3.77;;;;;;;12.50;100.00;99198.34;5055029;28;20220;-68
2022/07/09 02:20:48;;;;;;;4.57;3.87;;;;;;;12.49;100.00;99194.00;5054922;28;20235;-68
2022/07/09 02:23:14;;;;;;;4.07;3.53;;;;;;;12.54;100.00;99198.06;5054779;28;20221;-68
2022/07/09 02:25:41;;;;;;;5.50;3.77;;;;;;;12.53;100.00;99200.84;5054865;28;20243;-68
2022/07/09 02:28:07;;;;;;;5.47;3.80;;;;;;;12.55;100.00;99193.63;5054647;28;20693;-68
2022/07/09 02:30:36;;;;;;;5.80;3.90;;;;;;;12.55;100.00;99190.97;5054805;28;20221;-68
2022/07/09 02:33:03;;;;;;;4.80;4.30;;;;;;;12.53;100.00;99200.84;5053277;28;20568;-68
2022/07/09 02:35:30;;;;;;;6.90;4.53;;;;;;;12.44;100.00;99193.41;5054413;28;20687;-68
2022/07/09 02:37:57;;;;;;;6.40;4.00;;;;;;;12.41;100.00;99190.97;5054949;28;20216;-68
2022/07/09 02:40:23;;;;;;;5.43;4.17;;;;;;;12.39;100.00;99190.19;5054705;28;20226;-68
2022/07/09 02:42:50;;;;;;;5.70;4.20;;;;;;;12.41;100.00;99197.09;5054577;28;20222;-68
2022/07/09 02:45:16;;;;;;;5.10;4.30;;;;;;;12.37;100.00;99192.09;5054460;28;20243;-68
2022/07/09 02:47:44;;;;;;;4.47;4.03;;;;;;;12.39;100.00;99196.34;5054518;28;20215;-69
2022/07/09 02:50:11;;;;;;;4.57;3.93;;;;;;;12.40;100.00;99198.06;5054544;28;20215;-68
2022/07/09 02:52:37;;;;;;;5.17;4.13;;;;;;;12.43;100.00;99194.38;5054482;28;20219;-69
2022/07/09 02:55:04;;;;;;;5.07;3.97;;;;;;;12.42;100.00;99192.66;5054524;28;20222;-68
2022/07/09 02:57:31;;;;;;;6.47;4.50;;;;;;;12.40;100.00;99190.09;5054500;28;20233;-68
2022/07/09 02:59:59;;;;;;;5.10;4.43;;;;;;;12.39;100.00;99195.47;5052714;28;20562;-68
2022/07/09 03:02:25;;;;;;;4.37;3.90;;;;;;;12.41;100.00;99201.56;5051504;28;20750;-68
2022/07/09 03:04:53;;;;;;;4.47;3.70;;;;;;;12.33;100.00;99194.06;5054131;28;20248;-68
2022/07/09 03:07:20;;;;;;;5.87;4.33;;;;;;;12.28;100.00;99195.28;5054148;28;20235;-68
2022/07/09 03:09:46;;;;;;;5.27;4.13;;;;;;;12.24;100.00;99199.06;5053782;28;20235;-68
2022/07/09 03:12:13;;;;;;;7.50;4.50;;;;;;;12.12;100.00;99197.13;5051026;28;20214;-68
2022/07/09 03:14:39;;;;;;;5.90;4.73;;;;;;;12.09;100.00;99202.59;5054152;28;20227;-68
2022/07/09 03:17:06;;;;;;;6.43;3.97;;;;;;;12.11;100.00;99208.69;5053644;28;20689;-68
2022/07/09 03:19:33;;;;;;;5.80;4.37;;;;;;;12.07;100.00;99201.84;5053789;28;20219;-68
2022/07/09 03:22:00;;;;;;;6.70;4.50;;;;;;;12.07;100.00;99201.84;5053738;28;20247;-68
2022/07/09 03:24:27;;;;;;;7.90;5.13;;;;;;;12.05;100.00;99203.72;5052392;28;20242;-68
2022/07/09 03:26:53;;;;;;;7.00;4.73;;;;;;;11.98;100.00;99202.38;5053717;28;20227;-68
2022/07/09 03:29:20;;;;;;;7.20;4.77;;;;;;;12.00;100.00;99205.78;5053751;28;20219;-68
2022/07/09 03:31:46;;;;;;;5.97;4.57;;;;;;;12.01;100.00;99212.78;5053311;28;20673;-69
2022/07/09 03:34:13;;;;;;;6.73;4.90;;;;;;;12.01;100.00;99208.38;5053357;28;20216;-69
2022/07/09 03:36:39;;;;;;;5.90;4.50;;;;;;;12.01;100.00;99212.78;5053533;28;20569;-68
2022/07/09 03:39:07;;;;;;;5.83;4.87;;;;;;;11.95;100.00;99210.50;5053327;28;20223;-68
2022/07/09 03:41:34;;;;;;;7.17;4.63;;;;;;;11.90;100.00;99204.59;5053404;28;20219;-68
2022/07/09 03:44:00;;;;;;;6.13;4.40;;;;;;;11.96;100.00;99220.16;5053470;28;20234;-68
2022/07/09 03:46:27;;;;;;;5.63;4.33;;;;;;;12.02;100.00;99219.78;5053053;28;20245;-68
2022/07/09 03:48:53;;;;;;;6.47;4.60;;;;;;;12.04;100.00;99213.47;5053537;28;20638;-68
2022/07/09 03:51:20;;;;;;;5.00;4.50;;;;;;;12.09;100.00;99215.84;5051339;28;20217;-68
2022/07/09 03:53:46;;;;;;;5.20;4.27;;;;;;;12.11;100.00;99213.97;5053339;28;20223;-68
2022/07/09 03:56:14;;;;;;;6.23;4.37;;;;;;;12.16;100.00;99217.22;5053259;28;20294;-68
2022/07/09 03:58:43;;;;;;;5.57;3.90;;;;;;;12.21;100.00;99215.13;5053038;28;20224;-68
2022/07/09 04:01:09;;;;;;;6.77;4.30;;;;;;;12.28;100.00;99212.03;5053306;28;20617;-68
2022/07/09 04:03:36;;;;;;;4.43;3.83;;;;;;;12.32;100.00;99213.56;5052914;28;20230;-68
2022/07/09 04:06:02;;;;;;;5.77;4.57;;;;;;;12.32;100.00;99215.34;5053062;28;20243;-68
2022/07/09 04:08:29;;;;;;;5.13;4.50;;;;;;;12.33;100.00;99206.44;5052971;28;20223;-68
2022/07/09 04:10:55;;;;;;;6.23;4.53;;;;;;;12.41;100.00;99214.81;5052810;28;20216;-68
2022/07/09 04:13:23;;;;;;;5.77;4.43;;;;;;;12.44;100.00;99222.59;5052966;28;20222;-68
2022/07/09 04:15:50;;;;;;;6.23;4.63;;;;;;;12.50;100.00;99219.56;5052620;28;20223;-68
2022/07/09 04:18:16;;;;;;;6.57;4.40;;;;;;;12.54;100.00;99219.28;5051345;28;20226;-68
2022/07/09 04:20:43;;;;;;;4.57;4.17;;;;;;;12.58;100.00;99222.59;5052407;28;20240;-69
2022/07/09 04:23:10;;;;;;;5.00;4.23;;;;;;;12.61;100.00;99215.34;5052843;28;20223;-68
2022/07/09 04:25:36;;;;;;;6.50;4.77;;;;;;;12.66;100.00;99217.72;5052684;28;20238;-68
2022/07/09 04:28:05;;;;;;;8.00;5.27;;;;;;;12.68;100.00;99221.97;5052668;28;20218;-68
2022/07/09 04:30:33;;;;;;;6.13;4.40;;;;;;;12.72;100.00;99227.97;5052865;28;20248;-67
2022/07/09 04:33:00;;;;;;;5.07;4.37;;;;;;;12.84;100.00;99227.22;5052801;28;20588;-68
2022/07/09 04:35:27;;;;;;;6.27;4.80;;;;;;;12.95;100.00;99224.75;5052377;28;20209;-68
2022/07/09 04:37:53;;;;;;;4.77;3.90;;;;;;;13.05;100.00;99228.56;5052778;28;20227;-67
2022/07/09 04:40:20;;;;;;;6.00;4.30;;;;;;;13.18;100.00;99229.50;5052882;28;20212;-67
2022/07/09 04:42:46;;;;;;;4.33;3.93;;;;;;;13.31;100.00;99227.78;5051041;28;20226;-68
2022/07/09 04:45:13;;;;;;;5.87;4.80;;;;;;;13.44;100.00;99218.97;5052425;28;20254;-68
2022/07/09 04:47:40;;;;;;;5.33;4.10;;;;;;;13.62;100.00;99222.25;5052689;28;20600;-67
2022/07/09 04:50:08;;;;;;;5.27;4.20;;;;;;;13.73;100.00;99220.59;5052345;28;20673;-67
2022/07/09 04:52:35;;;;;;;6.47;4.37;;;;;;;13.87;100.00;99212.56;5052289;28;20748;-68
2022/07/09 04:55:01;;;;;;;5.00;4.50;;;;;;;14.03;99.43;99221.25;5052246;28;20693;-68
2022/07/09 04:57:28;;;;;;;6.30;4.40;;;;;;;14.19;97.85;99223.78;5052706;28;20220;-67
2022/07/09 04:59:58;;;;;;;4.80;4.00;;;;;;;14.38;96.88;99213.63;5052602;28;20211;-67
2022/07/09 05:02:25;;;;;;;5.57;4.13;;;;;;;14.57;95.60;99227.38;5050467;28;20216;-68
2022/07/09 05:04:53;;;;;;;4.37;3.97;;;;;;;14.78;94.00;99220.59;5056485;28;20224;-68
2022/07/09 05:07:19;;;;;;;5.77;4.30;;;;;;;15.07;91.98;99224.75;5056268;28;20218;-68
2022/07/09 05:09:46;;;;;;;4.73;4.23;;;;;;;15.59;89.38;99225.44;5054588;28;20208;-68
2022/07/09 05:12:12;;;;;;;3.97;3.57;;;;;;;16.36;84.72;99221.38;5056224;28;20214;-68
2022/07/09 05:14:39;;;;;;;4.03;3.67;;;;;;;16.71;82.74;99219.59;5055954;28;20216;-68
2022/07/09 05:17:06;;;;;;;4.80;3.63;;;;;;;16.96;81.45;99216.72;5047852;28;20218;-68
2022/07/09 05:19:33;;;;;;;4.33;3.80;;;;;;;17.29;79.20;99220.28;5056412;28;20567;-68
2022/07/09 05:22:01;;;;;;;6.10;4.00;;;;;;;17.97;75.61;99207.56;5056080;28;20243;-68
2022/07/09 05:24:27;;;;;;;4.27;3.73;;;;;;;18.76;71.46;99213.31;5056254;28;20302;-67
2022/07/09 05:26:54;;;;;;;4.43;3.60;;;;;;;19.56;67.56;99223.22;5056144;28;20240;-68
2022/07/09 05:29:22;;;;;;;4.10;3.70;;;;;;;20.12;63.40;99213.66;5055915;28;20220;-68
2022/07/09 05:31:48;;;;;;;4.43;3.33;;;;;;;20.72;61.71;99212.53;5055839;28;20231;-68
2022/07/09 05:34:16;;;;;;;4.17;3.40;;;;;;;21.25;58.51;99221.78;5055397;28;20315;-67
2022/07/09 05:36:42;;;;;;;3.93;3.03;;;;;;;21.47;57.04;99208.81;5054782;28;20212;-67
2022/07/09 05:39:10;;;;;;;3.83;3.40;;;;;;;21.93;55.55;99211.44;5055888;28;20303;-70
2022/07/09 05:41:37;;;;;;;4.40;3.27;;;;;;;22.18;54.29;99213.41;5055601;28;20216;-67
2022/07/09 05:44:04;;;;;;;4.50;3.17;;;;;;;22.26;54.15;99218.03;5055760;28;20212;-67
2022/07/09 05:46:30;;;;;;;5.13;3.70;;;;;;;22.56;52.17;99212.28;5055731;28;20243;-67
2022/07/09 05:48:57;;;;;;;3.77;3.07;;;;;;;22.93;51.12;99219.16;5055445;28;20685;-67
2022/07/09 05:51:23;;;;;;;6.43;3.67;;;;;;;23.23;49.76;99226.81;5055331;28;20212;-67
2022/07/09 05:53:50;;;;;;;3.47;3.10;;;;;;;23.68;48.35;99218.47;5055873;28;20216;-68
2022/07/09 05:56:18;;;;;;;4.37;2.93;;;;;;;24.15;47.64;99223.22;5055469;28;20228;-67
2022/07/09 05:58:45;;;;;;;3.57;3.27;;;;;;;24.59;46.14;99215.75;5055172;28;20220;-68
2022/07/09 06:01:12;;;;;;;3.80;2.83;;;;;;;25.07;45.39;99216.59;5053402;28;20212;-68
2022/07/09 06:03:39;;;;;;;3.80;2.63;;;;;;;25.46;44.04;99214.84;5049841;28;20692;-68
2022/07/09 06:06:06;;;;;;;3.57;3.23;;;;;;;25.76;43.25;99219.50;5055275;28;20242;-68
2022/07/09 06:08:33;;;;;;;3.60;2.90;;;;;;;25.86;43.33;99220.13;5054985;28;20677;-68
2022/07/09 06:11:00;;;;;;;5.67;2.80;;;;;;;26.10;42.72;99217.31;5055169;28;20218;-68
2022/07/09 06:13:28;;;;;;;3.30;2.60;;;;;;;26.16;42.05;99216.59;5054836;28;20565;-68
2022/07/09 06:15:54;;;;;;;3.27;2.80;;;;;;;26.18;42.02;99211.88;5054665;28;20218;-68
2022/07/09 06:18:21;;;;;;;4.50;2.80;;;;;;;26.28;41.74;99214.34;5055061;28;20258;-68
2022/07/09 06:20:49;;;;;;;4.23;2.53;;;;;;;26.18;41.90;99214.56;5054944;28;20337;-68
2022/07/09 06:23:15;;;;;;;4.53;2.80;;;;;;;26.52;40.50;99215.03;5054789;28;20217;-67
2022/07/09 06:25:42;;;;;;;5.93;2.60;;;;;;;26.87;40.46;99217.16;5054981;28;20238;-68
2022/07/09 06:28:08;;;;;;;4.00;2.70;;;;;;;27.11;40.12;99208.81;5053076;28;20224;-68
2022/07/09 06:30:36;;;;;;;4.23;2.70;;;;;;;27.44;39.21;99207.47;5054513;28;20227;-68
2022/07/09 06:33:03;;;;;;;4.40;2.60;;;;;;;27.62;39.49;99213.38;5054726;28;20216;-68
2022/07/09 06:35:30;;;;;;;3.17;2.30;;;;;;;27.55;38.92;99212.44;5054449;28;20210;-68
2022/07/09 06:37:57;;;;;;;3.37;2.27;;;;;;;27.28;39.22;99221.22;5054444;28;20685;-68
2022/07/09 06:40:24;;;;;;;3.60;3.13;;;;;;;26.46;40.70;99209.50;5054627;28;20220;-68
2022/07/09 06:42:50;;;;;;;3.50;2.27;;;;;;;25.68;41.98;99216.81;5054228;28;20688;-68
2022/07/09 06:45:17;;;;;;;2.60;2.20;;;;;;;25.05;43.48;99207.78;5054266;28;20208;-68
2022/07/09 06:47:45;;;;;;;2.23;2.03;;;;;;;24.29;44.46;99209.09;5054174;28;20701;-68
2022/07/09 06:50:11;;;;;;;4.40;2.80;;;;;;;23.78;46.05;99217.31;5054463;28;20208;-68
2022/07/09 06:52:38;;;;;;;2.50;2.23;;;;;;;23.77;46.14;99209.41;5052663;28;20226;-67
2022/07/09 06:55:05;;;;;;;3.73;2.30;;;;;;;23.58;46.36;99207.81;5054348;28;20223;-67
2022/07/09 06:57:32;;;;;;;4.27;2.70;;;;;;;24.15;45.36;99207.00;5054105;28;20700;-67
2022/07/09 06:59:59;;;;;;;2.90;2.63;;;;;;;25.07;43.83;99204.91;5054077;28;20208;-68
2022/07/09 07:02:25;;;;;;;5.70;3.03;;;;;;;24.96;43.71;99207.97;5054178;28;20216;-68
2022/07/09 07:04:53;;;;;;;3.73;2.40;;;;;;;25.06;43.60;99203.22;5054184;28;20222;-68
2022/07/09 07:07:20;;;;;;;4.03;2.70;;;;;;;25.24;43.83;99204.75;5054147;28;20322;-68
2022/07/09 07:09:46;;;;;;;3.10;2.67;;;;;;;25.69;42.72;99202.25;5054088;28;20240;-68
2022/07/09 07:12:13;;;;;;;3.50;3.13;;;;;;;25.55;42.20;99204.84;5054079;28;20212;-68
2022/07/09 07:14:39;;;;;;;5.20;3.10;;;;;;;25.25;43.49;99208.31;5054022;28;20215;-68
2022/07/09 07:17:06;;;;;;;3.40;2.83;;;;;;;24.40;45.47;99197.97;5053717;28;20587;-68
2022/07/09 07:19:32;;;;;;;3.20;2.70;;;;;;;23.69;47.65;99204.81;5051919;28;20218;-67
2022/07/09 07:22:00;;;;;;;3.27;2.87;;;;;;;23.10;48.26;99206.66;5053660;28;20255;-67
2022/07/09 07:24:27;;;;;;;3.03;2.50;;;;;;;22.81;49.49;99211.50;5053989;28;20298;-68
2022/07/09 07:26:53;;;;;;;3.33;2.70;;;;;;;22.75;50.88;99202.16;5052990;28;20244;-67
2022/07/09 07:29:20;;;;;;;2.70;2.50;;;;;;;22.65;50.96;99201.44;5051940;28;20601;-67
2022/07/09 07:31:46;;;;;;;3.97;2.73;;;;;;;22.47;51.03;99203.28;5052813;28;20583;-67
2022/07/09 07:34:13;;;;;;;4.10;2.37;;;;;;;22.29;52.86;99199.72;5052791;28;20677;-68
2022/07/09 07:36:39;;;;;;;3.03;2.63;;;;;;;22.10;53.41;99197.16;5052568;28;20669;-67
2022/07/09 07:39:07;;;;;;;4.30;2.70;;;;;;;21.92;54.25;99192.75;5052756;28;20220;-68
2022/07/09 07:41:34;;;;;;;4.30;3.10;;;;;;;21.85;54.29;99200.59;5052875;28;20212;-68
2022/07/09 07:44:00;;;;;;;3.20;2.77;;;;;;;21.80;53.98;99208.25;5052812;28;20208;-67
2022/07/09 07:46:27;;;;;;;5.30;3.10;;;;;;;21.75;53.64;99201.66;5051772;28;20250;-68
2022/07/09 07:48:53;;;;;;;3.90;3.10;;;;;;;21.72;53.07;99202.78;5053270;28;20592;-68
2022/07/09 07:51:20;;;;;;;4.23;2.73;;;;;;;21.72;54.53;99205.50;5053051;28;20212;-68
2022/07/09 07:53:46;;;;;;;3.30;2.80;;;;;;;21.70;54.40;99193.19;5053334;28;20220;-68
2022/07/09 07:56:14;;;;;;;4.37;3.17;;;;;;;21.66;53.84;99194.44;5053053;28;20299;-68
2022/07/09 07:58:41;;;;;;;7.50;3.30;;;;;;;21.74;52.49;99190.03;5052900;28;20220;-68
2022/07/09 08:01:08;;;;;;;4.07;2.93;;;;;;;21.83;54.24;99197.19;5053123;28;20216;-68
2022/07/09 08:03:34;;;;;;;4.17;2.70;;;;;;;21.96;53.95;99192.31;5053118;28;20295;-68
2022/07/09 08:06:01;;;;;;;3.70;2.80;;;;;;;22.17;53.82;99195.56;5052995;28;20212;-68
2022/07/09 08:08:28;;;;;;;4.10;2.57;;;;;;;22.17;48.26;99195.56;5052870;28;20219;-68
2022/07/09 08:10:54;;;;;;;4.77;2.30;;;;;;;22.14;50.57;99193.16;5050971;28;20216;-68
2022/07/09 08:13:22;;;;;;;3.00;2.07;;;;;;;22.20;51.56;99194.41;5052972;28;20226;-68
2022/07/09 08:15:49;;;;;;;3.10;2.50;;;;;;;22.18;50.10;99191.84;5052886;28;20295;-68
2022/07/09 08:18:15;;;;;;;2.67;2.30;;;;;;;22.19;51.56;99188.16;5053030;28;20220;-67
2022/07/09 08:20:43;;;;;;;2.40;2.20;;;;;;;22.36;52.92;99190.00;5052443;28;20244;-67
2022/07/09 08:23:10;;;;;;;2.83;2.10;;;;;;;22.50;53.56;99189.50;5052938;28;20215;-68
2022/07/09 08:25:37;;;;;;;3.80;2.20;;;;;;;22.58;51.40;99184.19;5052672;28;20219;-68
2022/07/09 08:28:04;;;;;;;3.40;2.00;;;;;;;22.62;51.69;99182.03;5052592;28;20240;-68
2022/07/09 08:30:32;;;;;;;2.87;1.97;;;;;;;22.68;49.65;99181.41;5052750;28;20285;-68
2022/07/09 08:32:58;;;;;;;4.57;2.33;;;;;;;22.60;49.49;99184.88;5052757;28;20226;-67
2022/07/09 08:35:25;;;;;;;2.17;1.73;;;;;;;22.64;51.99;99169.22;5052598;28;20322;-68
2022/07/09 08:37:52;;;;;;;1.70;1.50;;;;;;;22.77;52.75;99177.75;5053597;28;20582;-69
2022/07/09 08:40:19;;;;;;;2.27;1.70;;;;;;;22.97;52.53;99176.56;5056917;28;20212;-67
2022/07/09 08:42:45;;;;;;;1.60;1.03;;;;;;;23.07;52.87;99174.59;5056850;28;20216;-67
2022/07/09 08:45:13;;;;;;;1.43;1.30;;;;;;;23.12;51.31;99162.34;5057129;28;20218;-67
2022/07/09 08:47:42;;;;;;;2.97;1.70;;;;;;;23.17;49.49;99160.03;5056598;28;20315;-67
2022/07/09 08:50:09;;;;;;;2.10;1.23;;;;;;;23.19;52.39;99163.41;5056652;28;20216;-67
2022/07/09 08:52:37;;;;;;;1.63;1.43;;;;;;;23.29;51.54;99164.13;5056357;28;20300;-67
2022/07/09 08:55:06;;;;;;;2.20;1.50;;;;;;;23.40;51.91;99161.16;5056368;28;20212;-67
2022/07/09 08:57:32;;;;;;;1.77;1.47;;;;;;;23.52;52.20;99164.44;5056239;28;20685;-67
2022/07/09 08:59:59;;;;;;;3.13;1.40;;;;;;;23.62;49.16;99159.72;5056532;28;20216;-67
2022/07/09 09:02:25;;;;;;;2.40;1.37;;;;;;;23.60;47.65;99151.78;5055859;28;20246;-67
2022/07/09 09:04:55;;;;;;;2.80;1.60;;;;;;;23.52;47.55;99145.53;5055446;28;20234;-67
2022/07/09 09:07:22;;;;;;;2.63;1.90;;;;;;;23.39;47.82;99153.22;5056199;28;20728;-67
2022/07/09 09:09:48;;;;;;;5.07;1.63;;;;;;;23.23;48.17;99140.50;5056405;28;20215;-67
2022/07/09 09:12:15;;;;;;;1.77;1.67;;;;;;;23.23;47.95;99143.19;5056120;28;20223;-67
2022/07/09 09:14:49;;;;;;;2.83;1.57;;;;;;;23.23;48.82;99135.09;5055973;28;20315;-67
2022/07/09 09:17:16;;;;;;;3.17;1.60;;;;;;;23.40;50.48;99134.19;5055981;28;20706;-67
2022/07/09 09:19:42;;;;;;;2.97;1.60;;;;;;;23.52;50.31;99119.38;5055834;28;20239;-67
2022/07/09 09:22:10;;;;;;;2.43;1.70;;;;;;;23.69;50.32;99128.38;5055665;28;20245;-67
2022/07/09 09:24:37;;;;;;;2.03;1.40;;;;;;;23.85;49.75;99118.50;5055912;28;20222;-67
2022/07/09 09:27:04;;;;;;;2.63;1.43;;;;;;;23.94;49.85;99112.09;5055732;28;20605;-67
2022/07/09 09:29:31;;;;;;;1.83;1.30;;;;;;;24.07;49.72;99112.47;5054034;28;20791;-67
2022/07/09 09:31:57;;;;;;;1.80;1.30;;;;;;;24.06;48.18;99112.63;5055943;28;20234;-67
2022/07/09 09:34:24;;;;;;;2.53;1.50;;;;;;;24.12;47.11;99110.13;5055576;28;20223;-67
2022/07/09 09:36:51;;;;;;;2.37;1.47;;;;;;;24.13;47.39;99114.50;5055752;28;20217;-67
2022/07/09 09:39:21;;;;;;;1.97;1.40;;;;;;;24.14;47.86;99108.06;5055814;28;20220;-67
2022/07/09 09:41:50;;;;;;;2.57;1.83;;;;;;;24.34;47.11;99114.88;5055748;28;20216;-67
2022/07/09 09:44:18;;;;;;;3.40;1.90;;;;;;;24.50;49.02;99103.22;5055328;28;20220;-67
2022/07/09 09:46:46;;;;;;;2.03;1.60;;;;;;;24.69;46.31;99103.69;5055631;28;20286;-67
2022/07/09 09:49:15;;;;;;;1.70;1.50;;;;;;;24.71;46.98;99107.09;5054556;28;20673;-67
2022/07/09 09:51:51;;;;;;;2.37;1.43;;;;;;;24.69;48.48;99103.69;5055912;28;20212;-67
2022/07/09 09:54:20;;;;;;;1.80;1.60;;;;;;;24.68;47.65;99110.13;5055603;28;20247;-67
2022/07/09 09:56:47;;;;;;;2.10;1.70;;;;;;;24.64;45.29;99103.38;5054237;28;20223;-67
2022/07/09 09:59:14;;;;;;;2.77;1.60;;;;;;;24.75;45.39;99103.00;5055491;28;20216;-68
2022/07/09 10:01:42;;;;;;;2.17;1.47;;;;;;;24.74;43.68;99106.75;5055590;28;20219;-68
2022/07/09 10:04:10;;;;;;;2.77;1.80;;;;;;;24.53;43.31;99092.91;5055121;28;20665;-67
2022/07/09 10:06:38;;;;;;;2.03;1.37;;;;;;;24.43;42.63;99091.34;5055087;28;20696;-68
2022/07/09 10:09:07;;;;;;;1.87;1.40;;;;;;;24.31;42.95;99093.56;5054944;28;20222;-68
2022/07/09 10:11:42;;;;;;;2.20;1.50;;;;;;;24.13;42.55;99092.88;5054987;28;20227;-68
2022/07/09 10:14:15;;;;;;;2.03;1.20;;;;;;;24.10;43.14;99085.13;5047703;28;20222;-68
2022/07/09 10:16:42;;;;;;;1.63;1.43;;;;;;;24.37;44.15;99082.09;5055238;28;20304;-69
2022/07/09 10:19:08;;;;;;;2.00;1.30;;;;;;;24.46;42.32;99081.09;5055219;28;20224;-70
2022/07/09 10:21:37;;;;;;;3.10;1.60;;;;;;;24.53;41.96;99082.09;5053673;28;20236;-68
2022/07/09 10:24:04;;;;;;;1.63;1.23;;;;;;;24.59;41.91;99077.88;5055134;28;20215;-68
2022/07/09 10:26:53;;;;;;;2.40;1.20;;;;;;;24.79;41.70;99073.78;5054908;28;20223;-68
2022/07/09 10:29:21;;;;;;;1.50;1.13;;;;;;;25.01;41.50;99075.75;5049317;28;20217;-69
2022/07/09 10:31:48;;;;;;;2.40;1.40;;;;;;;25.08;40.57;99072.19;5046751;28;20215;-67
2022/07/09 10:34:32;;;;;;;1.97;1.20;;;;;;;25.33;39.86;99065.69;5054755;28;20216;-68
2022/07/09 10:36:59;;;;;;;3.10;1.20;;;;;;;25.38;39.54;99068.72;5054278;28;20204;-69
2022/07/09 10:39:27;;;;;;;2.27;1.10;;;;;;;25.54;40.38;99071.31;5054661;28;20586;-68
2022/07/09 10:42:02;;;;;;;2.00;1.20;;;;;;;25.83;39.60;99070.63;5054851;28;20218;-68
2022/07/09 10:44:34;;;;;;;1.85;1.33;;;;;;;26.17;39.92;99080.09;5054259;28;20300;-68
2022/07/09 10:47:01;;;;;;;1.97;1.40;;;;;;;26.43;38.40;99075.13;5052655;28;20240;-69
2022/07/09 10:49:28;;;;;;;2.28;1.17;;;;;;;26.60;38.28;99071.28;5054783;28;20212;-68
2022/07/09 10:51:58;;;;;;;2.70;1.37;;;;;;;26.67;38.60;99068.66;5054574;28;20722;-67
2022/07/09 10:54:25;;;;;;;1.70;1.33;;;;;;;26.34;39.01;99067.25;5051994;28;20222;-68
2022/07/09 10:56:53;;;;;;;1.20;1.10;;;;;;;25.79;41.05;99080.16;5054427;28;20216;-68
2022/07/09 10:59:22;;;;;;;3.25;1.52;;;;;;;25.43;40.60;99076.28;5046929;28;20212;-68
2022/07/09 11:01:50;;;;;;;1.67;1.50;;;;;;;25.04;41.17;99069.97;5053083;28;20219;-68
2022/07/09 11:04:25;;;;;;;1.67;1.13;;;;;;;24.76;41.49;99066.84;5051340;28;20678;-67
2022/07/09 11:06:52;;;;;;;1.87;1.20;;;;;;;24.58;41.89;99060.81;5053819;28;20211;-67
2022/07/09 11:09:18;;;;;;;1.30;1.20;;;;;;;24.80;42.30;99062.78;5054133;28;20219;-67
2022/07/09 11:11:46;;;;;;;2.83;1.60;;;;;;;25.12;42.73;99051.03;5053680;28;20223;-67
2022/07/09 11:14:13;;;;;;;2.40;1.10;;;;;;;25.71;39.68;99059.38;5052383;28;20588;-68
2022/07/09 11:16:41;;;;;;;1.60;1.20;;;;;;;26.22;38.25;99047.84;5053294;28;20236;-68
2022/07/09 11:19:14;;;;;;;1.70;1.20;;;;;;;26.76;36.86;99049.41;5054058;28;20303;-68
2022/07/09 11:21:41;;;;;;;1.20;1.10;;;;;;;26.84;37.39;99043.03;5053925;28;20240;-68
2022/07/09 11:24:14;;;;;;;1.93;1.10;;;;;;;26.75;35.94;99050.44;5053789;28;20216;-75
2022/07/09 11:26:41;;;;;;;1.97;1.10;;;;;;;26.64;35.83;99045.44;5053830;28;20212;-68
2022/07/09 11:29:08;;;;;;;2.13;1.35;;;;;;;26.52;38.04;99057.75;5053706;28;20243;-68
2022/07/09 11:31:35;;;;;;;1.93;1.40;;;;;;;26.31;39.83;99057.59;5053376;28;20224;-67